This is the latest recevied weather packets stored in our database for station/object EA1IDU. If no packets are shown the sender has not sent any weather packets the latest 10 day(s).
| Time | Temp. | Humidity | Pressure | Rain* | Wind** | Luminosity | Snow |
|---|---|---|---|---|---|---|---|
| 1777784472 | 10° C | 93% | 1015 hPa | 0 mm | - | - | - |
| 1777782679 | 10° C | 92% | 1015.1 hPa | 0 mm | - | - | - |
| 1777776668 | 10.56° C | 89% | 1015.2 hPa | 0 mm | - | - | - |
| 1777770093 | 10° C | 90% | 1015.9 hPa | 0 mm | - | - | - |
| 1777769468 | 10° C | 89% | 1016.1 hPa | 0 mm | - | - | - |
| 1777767048 | 10° C | 89% | 1016.2 hPa | 0 mm | - | - | - |
| 1777764628 | 10.56° C | 89% | 1016.4 hPa | 0 mm | - | - | - |
| 1777761058 | 11.11° C | 88% | 1016.3 hPa | 0 mm | - | - | - |
| 1777756822 | 11.67° C | 87% | 1016.3 hPa | 0 mm | - | - | - |
| 1777754462 | 11.67° C | 88% | 1016.3 hPa | 0 mm | - | - | - |
| 1777753858 | 11.67° C | 89% | 1016.2 hPa | 0 mm | - | - | - |
| 1777749622 | 12.22° C | 89% | 1015.8 hPa | 0.25 mm | - | - | - |
| 1777749017 | 12.22° C | 88% | 1015.7 hPa | 0.51 mm | - | - | - |
| 1777746658 | 12.22° C | 85% | 1015.9 hPa | 0.51 mm | - | - | - |
| 1777746073 | 12.78° C | 81% | 1016 hPa | 0.25 mm | - | - | - |
| 1777744238 | 13.33° C | 82% | 1015.4 hPa | 0 mm | - | - | - |
| 1777741273 | 12.22° C | 84% | 1016 hPa | 1.27 mm | - | - | - |
| 1777737058 | 12.22° C | 79% | 1016.2 hPa | 1.02 mm | - | - | - |
| 1777729838 | 11.67° C | 87% | 1017.1 hPa | 2.03 mm | - | - | - |
| 1777726872 | 12.22° C | 79% | 1018.3 hPa | 0.25 mm | - | - | - |
| 1777723244 | 12.78° C | 89% | 1018.1 hPa | 2.29 mm | - | - | - |
| 1777721428 | 12.78° C | 86% | 1018.6 hPa | 1.52 mm | - | - | - |
| 1777717253 | 15.56° C | 71% | 1018.1 hPa | 0 mm | - | - | - |
| 1777716669 | 15.56° C | 70% | 1018.4 hPa | 0 mm | - | - | - |
| 1777716064 | 15.56° C | 70% | 1018.5 hPa | 0 mm | - | - | - |
* Rain latest hour (hover to see other rain measurements)
** Current wind speed in m/s (hover to see current wind gust speed)